createdAt,value
2023-03-26T00:00:02.473Z,90.70
2023-03-26T00:02:31.811Z,91.20
2023-03-26T00:05:01.130Z,90.80
2023-03-26T00:07:30.483Z,91.00
2023-03-26T00:10:00.058Z,90.90
2023-03-26T00:12:29.367Z,91.30
2023-03-26T00:14:58.871Z,90.90
2023-03-26T00:17:28.180Z,90.90
2023-03-26T00:19:58.098Z,91.10
2023-03-26T00:22:30.300Z,91.10
2023-03-26T00:25:00.259Z,91.20
2023-03-26T00:27:30.241Z,91.10
2023-03-26T00:30:01.010Z,91.30
2023-03-26T00:32:31.674Z,91.40
2023-03-26T00:35:03.523Z,91.30
2023-03-26T00:37:34.799Z,91.30
2023-03-26T00:40:07.810Z,91.40
2023-03-26T00:42:37.405Z,91.40
2023-03-26T00:45:08.831Z,91.40
2023-03-26T00:47:41.069Z,91.40
2023-03-26T00:50:16.314Z,91.40
2023-03-26T00:52:47.351Z,91.50
2023-03-26T00:55:17.342Z,91.50
2023-03-26T00:57:46.970Z,91.60
2023-03-26T01:00:21.515Z,91.70
2023-03-26T01:02:50.762Z,91.60
2023-03-26T01:05:37.787Z,91.60
2023-03-26T01:08:32.695Z,91.60
2023-03-26T01:11:22.391Z,91.50
2023-03-26T01:14:08.386Z,91.60
2023-03-26T01:16:58.864Z,91.50
2023-03-26T01:20:08.569Z,91.40
2023-03-26T01:22:39.961Z,91.20
2023-03-26T01:25:13.244Z,91.10
2023-03-26T01:27:50.047Z,91.10
2023-03-26T01:30:59.625Z,90.90
2023-03-26T01:34:19.409Z,90.80
2023-03-26T01:37:26.644Z,90.70
2023-03-26T01:40:11.731Z,90.60
2023-03-26T01:43:02.328Z,90.50
2023-03-26T01:45:39.793Z,90.30
2023-03-26T01:48:10.147Z,90.20
2023-03-26T01:50:39.435Z,90.00
2023-03-26T01:53:11.275Z,90.00
2023-03-26T01:55:54.803Z,89.50
2023-03-26T01:59:05.236Z,89.00
2023-03-26T02:02:06.023Z,89.10
2023-03-26T02:05:01.311Z,89.10
2023-03-26T02:08:22.004Z,88.00
2023-03-26T02:10:58.584Z,87.60
2023-03-26T02:13:29.222Z,87.10
2023-03-26T02:16:04.843Z,86.50
2023-03-26T02:18:40.278Z,86.00
2023-03-26T02:21:21.106Z,84.30
2023-03-26T02:24:04.217Z,84.20
2023-03-26T02:26:36.741Z,83.10
2023-03-26T02:29:06.517Z,83.10
2023-03-26T02:31:36.749Z,82.90
2023-03-26T02:34:06.182Z,82.70
2023-03-26T02:36:36.798Z,82.30
2023-03-26T02:39:06.632Z,83.30
2023-03-26T02:41:35.924Z,81.30
2023-03-26T02:44:06.815Z,80.50
2023-03-26T02:46:36.540Z,80.40
2023-03-26T02:49:05.843Z,79.70
2023-03-26T02:51:38.472Z,79.10
2023-03-26T02:54:10.802Z,79.20
2023-03-26T02:56:40.224Z,79.70
2023-03-26T02:59:09.489Z,79.50
2023-03-26T03:01:43.798Z,79.20
2023-03-26T03:04:13.743Z,77.90
2023-03-26T03:06:43.159Z,77.90
2023-03-26T03:09:14.051Z,77.60
2023-03-26T03:11:43.501Z,77.40
2023-03-26T03:14:12.762Z,77.50
2023-03-26T03:16:42.112Z,77.30
2023-03-26T03:19:11.795Z,76.90
2023-03-26T03:21:42.910Z,76.50
2023-03-26T03:24:14.762Z,76.50
2023-03-26T03:26:46.629Z,76.30
2023-03-26T03:29:16.073Z,75.80
2023-03-26T03:31:45.336Z,74.90
2023-03-26T03:34:14.629Z,74.00
2023-03-26T03:36:43.862Z,75.00
2023-03-26T03:39:13.140Z,73.90
2023-03-26T03:41:42.499Z,73.50
2023-03-26T03:44:11.835Z,73.40
2023-03-26T03:46:41.331Z,72.60
2023-03-26T03:49:10.613Z,72.50
2023-03-26T03:51:39.852Z,72.90
2023-03-26T03:54:09.552Z,71.40
2023-03-26T03:56:39.995Z,72.70
2023-03-26T03:59:09.941Z,72.20
2023-03-26T04:01:39.331Z,72.10
2023-03-26T04:04:08.684Z,72.50
2023-03-26T04:06:38.016Z,71.70
2023-03-26T04:09:07.346Z,72.10
2023-03-26T04:11:36.620Z,71.80
2023-03-26T04:14:06.140Z,70.50
2023-03-26T04:16:35.433Z,71.40
2023-03-26T04:19:05.086Z,70.90
2023-03-26T04:21:38.646Z,70.50
2023-03-26T04:24:08.366Z,69.30
2023-03-26T04:26:37.923Z,68.80
2023-03-26T04:29:13.784Z,69.70
2023-03-26T04:31:44.029Z,69.60
2023-03-26T04:34:27.285Z,69.60
2023-03-26T04:36:56.521Z,70.20
2023-03-26T04:39:31.595Z,69.50
2023-03-26T04:42:01.453Z,69.30
2023-03-26T04:44:32.804Z,68.60
2023-03-26T04:47:02.095Z,69.00
2023-03-26T04:49:31.300Z,67.90
2023-03-26T04:52:00.958Z,67.10
2023-03-26T04:54:30.340Z,66.90
2023-03-26T04:57:03.280Z,66.70
2023-03-26T04:59:38.520Z,66.60
2023-03-26T05:02:09.360Z,66.80
2023-03-26T05:04:41.384Z,66.80
2023-03-26T05:07:12.277Z,65.10
2023-03-26T05:09:41.481Z,64.10
2023-03-26T05:12:10.626Z,63.10
2023-03-26T05:14:39.801Z,62.80
2023-03-26T05:17:11.876Z,62.10
2023-03-26T05:19:42.239Z,61.60
2023-03-26T05:22:11.429Z,61.90
2023-03-26T05:24:40.689Z,61.70
2023-03-26T05:27:10.211Z,60.00
2023-03-26T05:29:39.689Z,60.30
2023-03-26T05:32:11.345Z,60.90
2023-03-26T05:34:44.030Z,61.20
2023-03-26T05:37:13.224Z,61.20
2023-03-26T05:39:42.410Z,60.70
2023-03-26T05:42:11.612Z,60.90
2023-03-26T05:44:40.777Z,60.10
2023-03-26T05:47:09.927Z,59.30
2023-03-26T05:49:39.111Z,59.20
2023-03-26T05:52:08.576Z,58.70
2023-03-26T05:54:37.717Z,58.30
2023-03-26T05:57:07.138Z,58.30
2023-03-26T05:59:37.607Z,58.50
2023-03-26T06:02:07.369Z,58.50
2023-03-26T06:04:36.608Z,58.20
2023-03-26T06:07:05.882Z,58.90
2023-03-26T06:09:35.033Z,57.90
2023-03-26T06:12:04.359Z,58.00
2023-03-26T06:14:34.075Z,58.00
2023-03-26T06:17:03.854Z,57.60
2023-03-26T06:19:33.135Z,57.90
2023-03-26T06:22:02.329Z,58.00
2023-03-26T06:24:31.737Z,58.40
2023-03-26T06:27:00.936Z,59.00
2023-03-26T06:29:31.503Z,59.30
2023-03-26T06:32:12.381Z,58.90
2023-03-26T06:34:48.199Z,58.40
2023-03-26T06:37:18.531Z,57.40
2023-03-26T06:39:47.709Z,58.40
2023-03-26T06:42:17.125Z,59.30
2023-03-26T06:44:46.303Z,59.40
2023-03-26T06:47:15.638Z,58.80
2023-03-26T06:49:45.407Z,58.60
2023-03-26T06:52:14.649Z,59.00
2023-03-26T06:54:43.869Z,58.30
2023-03-26T06:57:13.078Z,58.30
2023-03-26T06:59:42.428Z,58.00
2023-03-26T07:02:12.867Z,58.10
2023-03-26T07:04:42.414Z,57.50
2023-03-26T07:07:11.620Z,57.10
2023-03-26T07:09:40.881Z,56.70
2023-03-26T07:12:10.796Z,56.20
2023-03-26T07:14:39.994Z,56.00
2023-03-26T07:17:09.164Z,55.70
2023-03-26T07:19:38.361Z,56.50
2023-03-26T07:22:07.989Z,55.50
2023-03-26T07:24:37.869Z,56.00
2023-03-26T07:27:47.877Z,54.50
2023-03-26T07:30:40.657Z,54.60
2023-03-26T07:33:51.090Z,54.50
2023-03-26T07:36:50.670Z,54.80
2023-03-26T07:39:36.441Z,54.80
2023-03-26T07:42:30.501Z,54.60
2023-03-26T07:45:42.129Z,54.90
2023-03-26T07:48:22.592Z,55.00
2023-03-26T07:50:52.943Z,55.00
2023-03-26T07:53:23.973Z,55.10
2023-03-26T07:56:09.783Z,55.10
2023-03-26T07:59:05.848Z,55.00
2023-03-26T08:02:10.784Z,55.30
2023-03-26T08:05:39.988Z,55.30
2023-03-26T08:08:35.908Z,55.90
2023-03-26T08:11:44.001Z,55.00
2023-03-26T08:14:41.908Z,55.00
2023-03-26T08:17:28.320Z,55.00
2023-03-26T08:20:51.341Z,55.30
2023-03-26T08:23:51.649Z,55.10
2023-03-26T08:26:52.826Z,55.00
2023-03-26T08:29:52.765Z,54.80
2023-03-26T08:32:22.839Z,54.60
2023-03-26T08:34:53.702Z,54.80
2023-03-26T08:37:22.908Z,54.90
2023-03-26T08:39:52.157Z,54.70
2023-03-26T08:42:50.886Z,54.40
2023-03-26T08:46:17.800Z,54.60
2023-03-26T08:49:07.693Z,55.00
2023-03-26T08:52:23.990Z,54.80
2023-03-26T08:55:42.078Z,55.50
2023-03-26T08:59:06.495Z,55.20
2023-03-26T09:02:03.071Z,55.20
2023-03-26T09:05:07.333Z,55.00
2023-03-26T09:08:20.157Z,55.10
2023-03-26T09:11:13.293Z,55.20
2023-03-26T09:14:22.425Z,55.10
2023-03-26T09:17:16.850Z,55.10
2023-03-26T09:20:38.826Z,55.30
2023-03-26T09:23:55.296Z,55.00
2023-03-26T09:26:31.582Z,55.00
2023-03-26T09:29:40.269Z,54.70
2023-03-26T09:32:47.213Z,54.70
2023-03-26T09:35:54.361Z,54.70
2023-03-26T09:38:53.405Z,54.80
2023-03-26T09:41:44.291Z,55.00
2023-03-26T09:44:33.598Z,54.90
2023-03-26T09:47:27.331Z,54.30
2023-03-26T09:50:23.181Z,53.60
2023-03-26T09:53:22.633Z,54.10
2023-03-26T09:56:40.683Z,53.90
2023-03-26T09:59:38.082Z,54.30
2023-03-26T10:02:18.787Z,54.20
2023-03-26T10:05:14.980Z,54.50
2023-03-26T10:08:16.250Z,53.90
2023-03-26T10:11:03.941Z,54.00
2023-03-26T10:14:00.676Z,54.50
2023-03-26T10:16:39.012Z,54.30
2023-03-26T10:19:44.509Z,54.50
2023-03-26T10:22:32.209Z,54.50
2023-03-26T10:26:07.040Z,54.10
2023-03-26T10:29:09.890Z,53.90
2023-03-26T10:32:01.622Z,54.30
2023-03-26T10:35:11.151Z,54.60
2023-03-26T10:37:59.865Z,54.80
2023-03-26T10:40:51.432Z,55.30
2023-03-26T10:44:10.624Z,55.30
2023-03-26T10:47:21.229Z,55.50
2023-03-26T10:52:55.117Z,55.40
2023-03-26T10:55:53.389Z,55.60
2023-03-26T10:58:48.756Z,55.70
2023-03-26T11:01:36.970Z,56.30
2023-03-26T11:04:56.639Z,56.40
2023-03-26T11:08:04.938Z,56.70
2023-03-26T11:11:06.926Z,56.70
2023-03-26T11:13:48.645Z,57.20
2023-03-26T11:17:14.811Z,57.20
2023-03-26T11:20:25.974Z,57.40
2023-03-26T11:23:16.814Z,57.90
2023-03-26T11:26:18.607Z,57.70
2023-03-26T11:31:58.698Z,57.90
2023-03-26T11:34:36.829Z,57.70
2023-03-26T11:34:43.125Z,58.00
2023-03-26T11:37:41.932Z,58.30
2023-03-26T11:40:25.177Z,58.30
2023-03-26T11:43:05.842Z,58.40
2023-03-26T11:45:43.758Z,58.60
2023-03-26T11:48:20.400Z,58.80
2023-03-26T11:51:27.529Z,58.80
2023-03-26T11:53:58.690Z,59.00
2023-03-26T11:57:05.996Z,59.00
2023-03-26T12:00:21.962Z,59.20
2023-03-26T12:02:57.142Z,59.50
2023-03-26T12:05:34.392Z,59.50
2023-03-26T12:08:21.154Z,59.70
2023-03-26T12:11:06.390Z,60.00
2023-03-26T12:13:52.640Z,60.00
2023-03-26T12:16:23.650Z,60.40
2023-03-26T12:19:20.203Z,60.40
2023-03-26T12:21:55.329Z,60.70
2023-03-26T12:24:42.810Z,61.10
2023-03-26T12:27:29.344Z,60.70
2023-03-26T12:30:20.916Z,61.10
2023-03-26T12:32:54.461Z,61.20
2023-03-26T12:35:30.259Z,61.50
2023-03-26T12:38:41.686Z,61.50
2023-03-26T12:44:43.637Z,61.70
2023-03-26T12:44:51.503Z,61.80
2023-03-26T12:47:57.449Z,62.00
2023-03-26T12:50:36.484Z,62.60
2023-03-26T12:54:07.822Z,62.40
2023-03-26T12:57:12.022Z,62.50
2023-03-26T13:00:21.049Z,62.90
2023-03-26T13:03:33.207Z,63.00
2023-03-26T13:06:59.824Z,63.10
2023-03-26T13:09:59.711Z,63.30
2023-03-26T13:12:31.556Z,63.60
2023-03-26T13:15:24.958Z,64.00
2023-03-26T13:18:08.389Z,63.70
2023-03-26T13:21:21.763Z,64.40
2023-03-26T13:24:11.029Z,64.10
2023-03-26T13:27:33.049Z,64.40
2023-03-26T13:30:07.196Z,64.50
2023-03-26T13:33:03.980Z,64.80
2023-03-26T13:35:46.742Z,64.80
2023-03-26T13:38:40.887Z,65.00
2023-03-26T13:41:37.625Z,65.20
2023-03-26T13:44:20.189Z,65.60
2023-03-26T13:47:01.805Z,66.00
2023-03-26T13:49:49.889Z,66.30
2023-03-26T13:52:45.280Z,66.10
2023-03-26T13:55:45.638Z,66.30
2023-03-26T13:58:52.216Z,66.50
2023-03-26T14:01:57.039Z,66.70
2023-03-26T14:04:44.757Z,66.80
2023-03-26T14:08:03.275Z,67.20
2023-03-26T14:10:44.388Z,67.10
2023-03-26T14:13:28.419Z,67.40
2023-03-26T14:16:30.821Z,67.50
2023-03-26T14:20:07.588Z,67.80
2023-03-26T14:23:23.366Z,67.50
2023-03-26T14:26:26.219Z,68.00
2023-03-26T14:29:11.747Z,67.60
2023-03-26T14:32:02.778Z,68.20
2023-03-26T14:34:57.948Z,68.00
2023-03-26T14:38:10.244Z,68.00
2023-03-26T14:41:06.859Z,68.10
2023-03-26T14:44:00.649Z,68.60
2023-03-26T14:46:52.397Z,68.40
2023-03-26T14:49:55.566Z,68.40
